createdAt,value
2023-01-04T00:01:22.483Z,5.77
2023-01-04T00:03:50.818Z,6.83
2023-01-04T00:06:19.808Z,6.43
2023-01-04T00:08:49.030Z,6.80
2023-01-04T00:11:18.773Z,7.07
2023-01-04T00:13:47.354Z,8.40
2023-01-04T00:16:17.158Z,6.70
2023-01-04T00:18:45.341Z,6.80
2023-01-04T00:21:15.361Z,6.70
2023-01-04T00:23:44.596Z,6.80
2023-01-04T00:26:15.886Z,6.13
2023-01-04T00:28:50.009Z,7.00
2023-01-04T00:31:22.648Z,6.63
2023-01-04T00:33:50.819Z,6.07
2023-01-04T00:36:18.615Z,6.60
2023-01-04T00:38:46.367Z,6.53
2023-01-04T00:41:48.747Z,6.67
2023-01-04T00:44:04.433Z,6.70
2023-01-04T00:46:32.962Z,6.10
2023-01-04T00:49:01.196Z,5.53
2023-01-04T00:51:30.667Z,5.77
2023-01-04T00:53:58.539Z,5.37
2023-01-04T00:56:29.536Z,5.17
2023-01-04T00:58:57.653Z,5.60
2023-01-04T01:01:26.201Z,7.20
2023-01-04T01:03:54.820Z,6.27
2023-01-04T01:06:23.045Z,5.83
2023-01-04T01:08:50.801Z,5.20
2023-01-04T01:11:18.811Z,6.10
2023-01-04T01:13:48.559Z,5.73
2023-01-04T01:16:27.356Z,5.47
2023-01-04T01:19:05.890Z,5.13
2023-01-04T01:21:33.808Z,4.50
2023-01-04T01:24:01.599Z,5.93
2023-01-04T01:26:29.343Z,6.50
2023-01-04T01:28:59.395Z,5.97
2023-01-04T01:31:29.926Z,5.57
2023-01-04T01:33:58.328Z,5.00
2023-01-04T01:36:27.444Z,5.43
2023-01-04T01:38:55.685Z,5.57
2023-01-04T01:41:25.347Z,5.77
2023-01-04T01:43:58.217Z,5.20
2023-01-04T01:46:30.401Z,5.07
2023-01-04T01:49:03.455Z,5.20
2023-01-04T01:51:32.812Z,5.17
2023-01-04T01:54:04.884Z,5.00
2023-01-04T01:56:38.233Z,5.30
2023-01-04T01:59:06.925Z,5.90
2023-01-04T02:01:36.528Z,4.10
2023-01-04T02:04:05.105Z,4.60
2023-01-04T02:06:39.258Z,3.77
2023-01-04T02:09:07.096Z,3.83
2023-01-04T02:11:35.258Z,4.00
2023-01-04T02:14:22.521Z,3.70
2023-01-04T02:17:02.106Z,3.90
2023-01-04T02:19:45.809Z,4.47
2023-01-04T02:23:04.757Z,4.07
2023-01-04T02:26:03.568Z,4.50
2023-01-04T02:28:47.382Z,4.40
2023-01-04T02:31:27.989Z,3.50
2023-01-04T02:34:05.627Z,4.50
2023-01-04T02:36:38.642Z,4.17
2023-01-04T02:39:15.557Z,4.30
2023-01-04T02:41:48.881Z,4.10
2023-01-04T02:44:37.609Z,4.47
2023-01-04T02:47:10.654Z,4.50
2023-01-04T02:50:00.639Z,3.80
2023-01-04T02:52:32.524Z,4.30
2023-01-04T02:55:01.910Z,4.60
2023-01-04T02:57:43.783Z,4.20
2023-01-04T03:00:25.868Z,4.27
2023-01-04T03:03:32.409Z,3.97
2023-01-04T03:06:18.836Z,4.03
2023-01-04T03:09:04.861Z,3.90
2023-01-04T03:11:58.951Z,4.30
2023-01-04T03:14:33.594Z,3.90
2023-01-04T03:17:03.703Z,4.97
2023-01-04T03:19:51.397Z,4.80
2023-01-04T03:22:41.390Z,4.50
2023-01-04T03:25:28.091Z,4.40
2023-01-04T03:28:15.998Z,4.83
2023-01-04T03:31:08.656Z,4.87
2023-01-04T03:33:54.215Z,5.00
2023-01-04T03:36:32.643Z,3.63
2023-01-04T03:39:21.987Z,4.00
2023-01-04T03:42:12.683Z,4.13
2023-01-04T03:45:10.038Z,4.37
2023-01-04T03:48:02.592Z,5.60
2023-01-04T03:50:35.783Z,5.30
2023-01-04T03:53:06.356Z,4.87
2023-01-04T03:55:35.975Z,5.30
2023-01-04T03:58:03.855Z,5.40
2023-01-04T04:00:32.409Z,4.13
2023-01-04T04:03:07.163Z,4.50
2023-01-04T04:05:55.619Z,4.23
2023-01-04T04:08:28.797Z,4.23
2023-01-04T04:10:58.689Z,4.20
2023-01-04T04:13:26.500Z,3.90
2023-01-04T04:15:54.752Z,4.63
2023-01-04T04:18:22.744Z,4.33
2023-01-04T04:20:58.737Z,3.70
2023-01-04T04:23:27.873Z,4.13
2023-01-04T04:25:55.629Z,4.50
2023-01-04T04:28:23.454Z,4.13
2023-01-04T04:30:51.605Z,3.87
2023-01-04T04:33:19.391Z,4.70
2023-01-04T04:35:51.616Z,3.27
2023-01-04T04:38:19.837Z,3.60
2023-01-04T04:41:06.553Z,3.40
2023-01-04T04:43:34.852Z,3.70
2023-01-04T04:46:03.312Z,3.20
2023-01-04T04:48:31.393Z,3.93
2023-01-04T04:50:59.248Z,3.30
2023-01-04T04:53:27.071Z,2.40
2023-01-04T04:55:56.269Z,3.07
2023-01-04T04:58:24.156Z,2.60
2023-01-04T05:00:51.943Z,2.70
2023-01-04T05:03:19.935Z,2.80
2023-01-04T05:05:47.906Z,2.70
2023-01-04T05:08:15.829Z,2.63
2023-01-04T05:10:43.573Z,2.80
2023-01-04T05:13:13.115Z,2.70
2023-01-04T05:15:43.006Z,2.13
2023-01-04T05:18:12.856Z,2.97
2023-01-04T05:20:40.647Z,2.27
2023-01-04T05:23:09.167Z,2.30
2023-01-04T05:25:36.961Z,2.50
2023-01-04T05:28:04.967Z,2.70
2023-01-04T05:30:51.264Z,2.10
2023-01-04T05:33:20.547Z,2.13
2023-01-04T05:35:48.429Z,2.33
2023-01-04T05:38:17.026Z,2.43
2023-01-04T05:40:44.971Z,2.00
2023-01-04T05:43:13.629Z,2.30
2023-01-04T05:45:44.285Z,2.10
2023-01-04T05:48:12.270Z,2.37
2023-01-04T05:50:40.076Z,2.30
2023-01-04T05:53:08.503Z,2.10
2023-01-04T05:55:36.288Z,2.47
2023-01-04T05:58:04.021Z,2.27
2023-01-04T06:00:32.133Z,2.60
2023-01-04T06:03:01.495Z,2.60
2023-01-04T06:05:29.435Z,2.13
2023-01-04T06:07:57.244Z,2.03
2023-01-04T06:10:24.963Z,2.43
2023-01-04T06:12:52.745Z,2.27
2023-01-04T06:15:20.591Z,1.97
2023-01-04T06:17:48.412Z,2.17
2023-01-04T06:20:17.729Z,2.70
2023-01-04T06:22:45.510Z,2.40
2023-01-04T06:25:13.539Z,2.47
2023-01-04T06:27:41.304Z,2.70
2023-01-04T06:30:10.138Z,2.27
2023-01-04T06:32:37.947Z,2.50
2023-01-04T06:35:06.387Z,2.10
2023-01-04T06:37:35.943Z,2.20
2023-01-04T06:40:04.305Z,1.80
2023-01-04T06:42:47.205Z,2.10
2023-01-04T06:45:16.666Z,1.80
2023-01-04T06:47:45.054Z,1.93
2023-01-04T06:50:13.363Z,1.57
2023-01-04T06:52:42.948Z,1.90
2023-01-04T06:55:11.214Z,1.83
2023-01-04T06:57:39.033Z,1.57
2023-01-04T07:00:09.021Z,1.50
2023-01-04T07:02:37.127Z,1.77
2023-01-04T07:05:05.442Z,1.87
2023-01-04T07:07:33.889Z,1.87
2023-01-04T07:10:09.141Z,1.60
2023-01-04T07:12:37.974Z,1.60
2023-01-04T07:15:37.397Z,1.90
2023-01-04T07:17:54.785Z,2.13
2023-01-04T07:20:22.561Z,1.67
2023-01-04T07:22:50.397Z,1.80
2023-01-04T07:25:19.657Z,1.80
2023-01-04T07:27:51.844Z,2.30
2023-01-04T07:30:19.762Z,1.90
2023-01-04T07:32:47.659Z,1.70
2023-01-04T07:35:15.499Z,2.23
2023-01-04T07:37:44.219Z,2.10
2023-01-04T07:40:12.741Z,1.87
2023-01-04T07:42:41.879Z,1.83
2023-01-04T07:45:10.274Z,1.80
2023-01-04T07:47:38.087Z,2.43
2023-01-04T07:50:06.612Z,1.90
2023-01-04T07:52:34.406Z,2.17
2023-01-04T07:55:02.205Z,2.63
2023-01-04T07:57:29.976Z,2.30
2023-01-04T07:59:59.080Z,2.33
2023-01-04T08:02:26.961Z,2.20
2023-01-04T08:04:56.704Z,1.70
2023-01-04T08:07:24.620Z,1.50
2023-01-04T08:09:52.393Z,1.90
2023-01-04T08:12:20.120Z,1.60
2023-01-04T08:14:47.873Z,1.83
2023-01-04T08:17:16.967Z,1.80
2023-01-04T08:19:46.511Z,1.87
2023-01-04T08:22:14.889Z,1.90
2023-01-04T08:24:43.310Z,2.20
2023-01-04T08:27:11.333Z,2.00
2023-01-04T08:29:39.119Z,1.70
2023-01-04T08:32:07.452Z,1.60
2023-01-04T08:34:36.614Z,2.00
2023-01-04T08:37:04.464Z,2.17
2023-01-04T08:39:35.798Z,2.10
2023-01-04T08:42:17.956Z,1.47
2023-01-04T08:44:48.404Z,1.90
2023-01-04T08:47:16.222Z,1.90
2023-01-04T08:49:45.507Z,1.80
2023-01-04T08:52:15.688Z,1.87
2023-01-04T08:54:43.810Z,1.40
2023-01-04T08:57:11.566Z,1.40
2023-01-04T08:59:39.442Z,1.70
2023-01-04T09:02:21.018Z,1.90
2023-01-04T09:04:50.808Z,1.70
2023-01-04T09:07:19.328Z,1.63
2023-01-04T09:09:47.221Z,1.60
2023-01-04T09:12:15.123Z,1.50
2023-01-04T09:14:42.927Z,1.47
2023-01-04T09:17:10.735Z,1.47
2023-01-04T09:19:38.514Z,1.43
2023-01-04T09:22:07.943Z,1.30
2023-01-04T09:24:35.896Z,1.17
2023-01-04T09:27:04.667Z,1.00
2023-01-04T09:29:32.665Z,1.30
2023-01-04T09:32:00.497Z,1.30
2023-01-04T09:34:31.399Z,1.17
2023-01-04T09:36:59.211Z,1.10
2023-01-04T09:39:30.433Z,1.00
2023-01-04T09:42:00.038Z,1.20
2023-01-04T09:45:21.181Z,1.60
2023-01-04T09:47:35.844Z,0.87
2023-01-04T09:50:07.576Z,1.70
2023-01-04T09:52:47.534Z,1.20
2023-01-04T09:55:37.742Z,1.23
2023-01-04T09:58:25.899Z,1.70
2023-01-04T10:01:00.837Z,1.17
2023-01-04T10:03:32.280Z,1.33
2023-01-04T10:06:01.600Z,1.57
2023-01-04T10:08:31.338Z,1.87
2023-01-04T10:11:13.371Z,1.60
2023-01-04T10:14:03.473Z,1.20
2023-01-04T10:17:12.195Z,1.20
2023-01-04T10:22:42.849Z,1.00
2023-01-04T10:25:27.750Z,1.43
2023-01-04T10:28:12.367Z,1.20
2023-01-04T10:30:48.572Z,1.27
2023-01-04T10:33:24.169Z,1.30
2023-01-04T10:35:52.475Z,1.10
2023-01-04T10:38:25.520Z,1.20
2023-01-04T10:40:55.018Z,1.30
2023-01-04T10:43:35.434Z,1.17
2023-01-04T10:46:27.917Z,0.87
2023-01-04T10:49:01.226Z,1.00
2023-01-04T10:51:34.550Z,0.97
2023-01-04T10:54:09.987Z,0.90
2023-01-04T10:56:41.930Z,1.03
2023-01-04T10:59:18.087Z,0.90
2023-01-04T11:01:52.279Z,0.90
2023-01-04T11:04:25.660Z,1.00
2023-01-04T11:06:57.910Z,1.10
2023-01-04T11:09:28.414Z,1.17
2023-01-04T11:11:58.086Z,0.90
2023-01-04T11:14:33.364Z,1.03
2023-01-04T11:17:06.163Z,0.90
2023-01-04T11:19:35.013Z,1.40
2023-01-04T11:22:12.040Z,0.93
2023-01-04T11:25:00.530Z,1.10
2023-01-04T11:27:32.200Z,0.97
2023-01-04T11:30:04.913Z,0.70
2023-01-04T11:32:39.939Z,1.10
2023-01-04T11:35:08.823Z,0.70
2023-01-04T11:37:38.283Z,0.90
2023-01-04T11:40:22.397Z,0.70
2023-01-04T11:42:52.552Z,1.10
2023-01-04T11:45:24.658Z,0.70
2023-01-04T11:47:55.128Z,0.87
2023-01-04T11:50:38.729Z,0.93
2023-01-04T11:53:24.230Z,0.90
2023-01-04T11:55:52.621Z,0.70
2023-01-04T11:58:20.959Z,0.80
2023-01-04T12:00:55.106Z,1.07
2023-01-04T12:03:29.679Z,0.80
2023-01-04T12:05:58.474Z,0.77
2023-01-04T12:08:31.556Z,1.07
2023-01-04T12:11:01.294Z,0.60
2023-01-04T12:13:30.146Z,0.90
2023-01-04T12:16:08.483Z,0.63
2023-01-04T12:18:39.067Z,0.70
2023-01-04T12:21:06.925Z,0.60
2023-01-04T12:23:34.947Z,0.70
2023-01-04T12:26:03.589Z,0.60
2023-01-04T12:28:34.619Z,0.70
2023-01-04T12:31:28.860Z,0.70
2023-01-04T12:33:57.719Z,0.67
2023-01-04T12:36:57.536Z,0.70
2023-01-04T12:39:47.410Z,0.83
2023-01-04T12:42:23.133Z,0.63
2023-01-04T12:45:19.352Z,0.80
2023-01-04T12:48:07.939Z,0.73
2023-01-04T12:51:42.691Z,0.77
2023-01-04T12:54:31.684Z,0.70
2023-01-04T12:57:36.846Z,0.70
2023-01-04T13:00:07.093Z,0.67
2023-01-04T13:02:36.287Z,0.90
2023-01-04T13:05:54.872Z,0.90
2023-01-04T13:08:15.012Z,0.80
2023-01-04T13:10:48.864Z,0.90
2023-01-04T13:13:29.840Z,0.60
2023-01-04T13:16:14.869Z,0.63
2023-01-04T13:18:47.923Z,0.90
2023-01-04T13:21:18.351Z,0.70
2023-01-04T13:23:52.506Z,0.70
2023-01-04T13:26:48.221Z,0.60
2023-01-04T13:29:19.165Z,0.60
2023-01-04T13:31:53.901Z,0.70
2023-01-04T13:34:26.264Z,0.83
2023-01-04T13:37:00.388Z,0.70
2023-01-04T13:39:29.011Z,0.90
2023-01-04T13:41:59.599Z,0.70
2023-01-04T13:45:20.519Z,0.60
2023-01-04T13:47:41.316Z,0.60
2023-01-04T13:50:30.545Z,1.00
2023-01-04T13:53:13.730Z,0.67
2023-01-04T13:55:41.475Z,0.50
2023-01-04T13:58:18.708Z,0.60
2023-01-04T14:00:49.453Z,0.70
2023-01-04T14:03:30.969Z,0.87
2023-01-04T14:06:16.342Z,0.60
2023-01-04T14:08:51.585Z,0.50
2023-01-04T14:11:41.326Z,1.27
2023-01-04T14:14:22.920Z,0.70
2023-01-04T14:16:52.456Z,0.80
2023-01-04T14:19:43.078Z,0.67
2023-01-04T14:22:41.295Z,0.63
2023-01-04T14:25:48.925Z,0.60
2023-01-04T14:28:27.635Z,0.67
2023-01-04T14:31:12.670Z,0.50
2023-01-04T14:33:44.608Z,0.90
2023-01-04T14:36:15.577Z,0.50
2023-01-04T14:38:46.370Z,0.83
2023-01-04T14:41:21.185Z,0.60
2023-01-04T14:43:53.385Z,0.50
2023-01-04T14:46:23.123Z,0.50
2023-01-04T14:48:50.953Z,0.50
2023-01-04T14:51:22.532Z,0.57
2023-01-04T14:53:51.309Z,0.67
2023-01-04T14:56:20.213Z,0.50
2023-01-04T14:58:48.033Z,0.63
2023-01-04T15:01:16.071Z,0.60
2023-01-04T15:03:45.349Z,0.50
2023-01-04T15:06:13.902Z,0.50
2023-01-04T15:08:41.741Z,0.50
2023-01-04T15:11:10.570Z,0.50
2023-01-04T15:13:39.826Z,0.60
2023-01-04T15:16:10.960Z,0.50
2023-01-04T15:18:38.929Z,0.90
2023-01-04T15:21:09.292Z,0.60
2023-01-04T15:23:37.486Z,0.60
2023-01-04T15:26:05.948Z,0.70
2023-01-04T15:28:33.810Z,0.50
2023-01-04T15:31:01.823Z,0.60
2023-01-04T15:33:32.070Z,0.60
2023-01-04T15:36:00.804Z,0.67
2023-01-04T15:38:30.015Z,0.50
2023-01-04T15:41:08.217Z,0.60
2023-01-04T15:43:36.496Z,0.50
2023-01-04T15:46:07.830Z,0.55
2023-01-04T15:48:35.893Z,0.67
2023-01-04T15:51:05.852Z,0.50
2023-01-04T15:53:35.265Z,0.50
2023-01-04T15:56:08.057Z,0.60
2023-01-04T15:58:36.010Z,0.60
2023-01-04T16:01:10.485Z,0.50
2023-01-04T16:03:38.975Z,0.50
2023-01-04T16:06:08.561Z,0.53
2023-01-04T16:08:37.706Z,0.70
2023-01-04T16:11:14.279Z,0.50
2023-01-04T16:13:44.877Z,0.60
2023-01-04T16:16:12.951Z,0.50
2023-01-04T16:18:46.699Z,0.60
2023-01-04T16:21:15.753Z,0.50
2023-01-04T16:23:44.895Z,0.60
2023-01-04T16:26:14.675Z,0.50
2023-01-04T16:28:42.600Z,0.60
2023-01-04T16:31:10.898Z,0.60
2023-01-04T16:33:38.698Z,0.60
2023-01-04T16:36:09.519Z,0.50
2023-01-04T16:38:39.628Z,0.60
2023-01-04T16:41:11.931Z,0.70
2023-01-04T16:43:44.901Z,0.50
2023-01-04T16:46:21.634Z,0.50
2023-01-04T16:48:51.281Z,0.60
2023-01-04T16:51:19.197Z,0.60
2023-01-04T16:53:47.158Z,0.50
2023-01-04T16:56:20.254Z,0.50
2023-01-04T16:58:48.520Z,0.57
2023-01-04T17:01:18.375Z,0.50
2023-01-04T17:03:47.878Z,0.60
2023-01-04T17:06:17.648Z,0.50
2023-01-04T17:08:46.666Z,0.50
2023-01-04T17:12:05.084Z,0.60
2023-01-04T17:14:06.309Z,0.50
2023-01-04T17:16:35.251Z,0.50
2023-01-04T17:19:03.579Z,0.57
2023-01-04T17:21:36.283Z,0.70
2023-01-04T17:24:04.882Z,0.50
2023-01-04T17:26:34.203Z,0.50
2023-01-04T17:29:02.763Z,0.50
2023-01-04T17:31:32.333Z,0.67
2023-01-04T17:34:00.493Z,0.60
2023-01-04T17:36:28.385Z,0.40
2023-01-04T17:38:56.369Z,0.60
2023-01-04T17:41:25.829Z,0.60
2023-01-04T17:43:59.976Z,0.50
2023-01-04T17:46:31.653Z,0.57
2023-01-04T17:49:21.709Z,0.67
2023-01-04T17:51:47.625Z,0.77
2023-01-04T17:54:15.403Z,0.50
2023-01-04T17:56:43.157Z,0.60
2023-01-04T17:59:12.662Z,0.60
2023-01-04T18:01:40.511Z,0.47
2023-01-04T18:04:08.951Z,0.50
2023-01-04T18:06:38.018Z,0.50
2023-01-04T18:09:08.913Z,0.50
2023-01-04T18:11:37.488Z,0.63
2023-01-04T18:14:09.825Z,0.67
2023-01-04T18:16:55.391Z,0.50
2023-01-04T18:19:23.350Z,0.57
2023-01-04T18:21:51.169Z,0.70
2023-01-04T18:27:24.447Z,0.60
2023-01-04T18:29:54.436Z,0.70
2023-01-04T18:32:24.762Z,0.60
2023-01-04T18:34:52.592Z,0.60
2023-01-04T18:37:20.584Z,0.80
2023-01-04T18:39:48.511Z,0.60
2023-01-04T18:42:16.904Z,0.50
2023-01-04T18:44:49.035Z,0.73
2023-01-04T18:47:17.677Z,0.70
2023-01-04T18:49:46.847Z,0.60
2023-01-04T18:52:15.278Z,0.60
2023-01-04T18:54:43.714Z,0.60
2023-01-04T18:57:11.670Z,0.70
2023-01-04T18:59:39.389Z,0.63
2023-01-04T19:02:07.306Z,0.40
2023-01-04T19:04:36.991Z,0.70
2023-01-04T19:07:06.125Z,0.50
2023-01-04T19:09:33.959Z,0.63
2023-01-04T19:12:02.203Z,0.60
2023-01-04T19:14:29.915Z,0.60
2023-01-04T19:16:57.785Z,0.70
2023-01-04T19:19:25.861Z,0.70
2023-01-04T19:21:53.888Z,0.50
2023-01-04T19:24:22.971Z,0.50
2023-01-04T19:26:50.742Z,0.60
2023-01-04T19:29:18.504Z,0.60
2023-01-04T19:31:46.280Z,0.70
2023-01-04T19:34:14.297Z,0.70
2023-01-04T19:36:42.140Z,0.60
2023-01-04T19:39:09.917Z,0.50
2023-01-04T19:41:39.143Z,0.90
2023-01-04T19:44:09.409Z,1.00
2023-01-04T19:46:38.942Z,0.50
2023-01-04T19:49:14.251Z,0.60
2023-01-04T19:51:43.694Z,0.53
2023-01-04T19:54:12.060Z,0.60
2023-01-04T19:56:41.277Z,0.50
2023-01-04T19:59:09.057Z,0.60
2023-01-04T20:01:37.364Z,0.50
2023-01-04T20:04:05.492Z,0.70
2023-01-04T20:06:33.792Z,0.50
2023-01-04T20:09:01.679Z,0.80
2023-01-04T20:11:29.503Z,0.60
2023-01-04T20:13:58.862Z,0.90
2023-01-04T20:16:26.871Z,0.70
2023-01-04T20:18:56.708Z,0.83
2023-01-04T20:21:24.678Z,0.50
2023-01-04T20:23:52.484Z,0.77
2023-01-04T20:26:20.619Z,0.50
2023-01-04T20:28:48.637Z,0.50
2023-01-04T20:31:19.398Z,0.50
2023-01-04T20:33:48.458Z,0.60
2023-01-04T20:36:18.722Z,0.60
2023-01-04T20:38:48.562Z,0.50
2023-01-04T20:41:18.642Z,0.80
2023-01-04T20:43:47.121Z,0.53
2023-01-04T20:46:18.479Z,0.50
2023-01-04T20:48:47.225Z,0.67
2023-01-04T20:51:17.455Z,0.60
2023-01-04T20:53:45.618Z,0.50
2023-01-04T20:56:16.552Z,0.53
2023-01-04T20:58:45.619Z,0.50
2023-01-04T21:01:14.475Z,0.60
2023-01-04T21:03:43.958Z,0.60
2023-01-04T21:06:14.653Z,0.60
2023-01-04T21:08:43.771Z,0.47
2023-01-04T21:11:12.975Z,0.60
2023-01-04T21:13:41.169Z,0.60
2023-01-04T21:16:09.471Z,0.60
2023-01-04T21:18:38.008Z,0.60
2023-01-04T21:21:08.640Z,0.50
2023-01-04T21:23:38.114Z,0.60
2023-01-04T21:26:07.335Z,0.50
2023-01-04T21:28:36.507Z,0.50
2023-01-04T21:31:10.451Z,0.70
2023-01-04T21:33:38.524Z,1.07
2023-01-04T21:36:16.209Z,0.67
2023-01-04T21:38:44.488Z,1.53
2023-01-04T21:41:14.561Z,0.60
2023-01-04T21:43:43.351Z,0.60
2023-01-04T21:46:14.649Z,0.50
2023-01-04T21:48:43.329Z,0.50
2023-01-04T21:51:11.930Z,0.57
2023-01-04T21:53:41.826Z,0.67
2023-01-04T21:56:11.888Z,0.70
2023-01-04T21:58:39.796Z,0.50
2023-01-04T22:01:11.588Z,0.60
2023-01-04T22:03:39.928Z,0.60
2023-01-04T22:06:08.633Z,0.60
2023-01-04T22:08:36.858Z,0.60
2023-01-04T22:11:07.724Z,0.60
2023-01-04T22:13:35.606Z,0.50
2023-01-04T22:16:06.251Z,0.80
2023-01-04T22:18:34.413Z,0.60
2023-01-04T22:21:03.616Z,0.50
2023-01-04T22:23:31.908Z,0.80
2023-01-04T22:26:00.375Z,0.60
2023-01-04T22:28:36.359Z,0.50
2023-01-04T22:31:06.680Z,0.50
2023-01-04T22:33:35.162Z,0.50
2023-01-04T22:36:05.899Z,0.60
2023-01-04T22:38:35.221Z,0.50
2023-01-04T22:41:06.546Z,0.60
2023-01-04T22:43:36.083Z,0.60
2023-01-04T22:46:05.962Z,0.60
2023-01-04T22:48:34.264Z,0.50
2023-01-04T22:51:06.415Z,0.50
2023-01-04T22:53:34.237Z,0.73
2023-01-04T22:56:22.411Z,0.60
2023-01-04T23:01:35.163Z,0.77
2023-01-04T23:04:03.850Z,0.67
2023-01-04T23:06:32.806Z,0.60
2023-01-04T23:09:02.705Z,0.53
2023-01-04T23:11:33.264Z,0.50
2023-01-04T23:14:02.639Z,0.70
2023-01-04T23:16:33.135Z,0.60
2023-01-04T23:19:03.599Z,0.60
2023-01-04T23:21:31.722Z,0.60
2023-01-04T23:23:59.589Z,1.00
2023-01-04T23:26:28.952Z,0.63
2023-01-04T23:28:56.906Z,0.70
2023-01-04T23:31:27.048Z,0.50
2023-01-04T23:33:56.248Z,0.60
2023-01-04T23:36:27.819Z,0.50
2023-01-04T23:38:57.445Z,0.60
2023-01-04T23:41:44.146Z,0.60
2023-01-04T23:44:17.683Z,0.50
2023-01-04T23:46:45.998Z,0.60
2023-01-04T23:49:14.468Z,0.50
2023-01-04T23:51:43.784Z,0.60
2023-01-04T23:54:11.933Z,0.60
2023-01-04T23:56:40.024Z,0.50
2023-01-04T23:59:08.654Z,0.60
